createdAt,value
2024-01-12T00:02:16.711Z,14.90
2024-01-12T00:04:43.847Z,14.50
2024-01-12T00:07:11.029Z,14.60
2024-01-12T00:09:38.149Z,14.60
2024-01-12T00:12:05.757Z,14.60
2024-01-12T00:14:32.836Z,14.70
2024-01-12T00:16:59.920Z,14.70
2024-01-12T00:19:26.998Z,14.80
2024-01-12T00:21:55.254Z,14.70
2024-01-12T00:24:22.324Z,14.80
2024-01-12T00:26:50.346Z,14.80
2024-01-12T00:29:17.564Z,14.80
2024-01-12T00:31:44.908Z,14.90
2024-01-12T00:34:12.014Z,14.90
2024-01-12T00:36:39.085Z,14.90
2024-01-12T00:39:06.475Z,14.90
2024-01-12T00:41:33.607Z,14.90
2024-01-12T00:44:00.783Z,15.00
2024-01-12T00:46:28.117Z,14.90
2024-01-12T00:48:55.336Z,14.90
2024-01-12T00:51:22.506Z,14.90
2024-01-12T00:53:49.645Z,14.70
2024-01-12T00:56:17.073Z,14.90
2024-01-12T00:58:44.252Z,14.90
2024-01-12T01:01:11.495Z,14.90
2024-01-12T01:03:38.983Z,14.90
2024-01-12T01:06:06.809Z,14.90
2024-01-12T01:08:34.057Z,14.90
2024-01-12T01:11:01.192Z,14.90
2024-01-12T01:13:28.282Z,14.90
2024-01-12T01:15:55.907Z,14.90
2024-01-12T01:18:23.159Z,14.90
2024-01-12T01:20:50.696Z,14.90
2024-01-12T01:23:18.336Z,15.00
2024-01-12T01:25:45.589Z,14.90
2024-01-12T01:28:12.674Z,14.90
2024-01-12T01:30:39.910Z,14.90
2024-01-12T01:33:07.159Z,14.80
2024-01-12T01:35:34.847Z,14.80
2024-01-12T01:38:01.948Z,14.80
2024-01-12T01:40:29.092Z,14.90
2024-01-12T01:42:56.393Z,14.90
2024-01-12T01:45:23.758Z,14.60
2024-01-12T01:47:51.031Z,14.90
2024-01-12T01:50:18.539Z,15.00
2024-01-12T01:52:46.526Z,15.00
2024-01-12T01:55:15.468Z,15.00
2024-01-12T01:57:43.485Z,15.00
2024-01-12T02:00:12.361Z,15.00
2024-01-12T02:02:40.786Z,15.00
2024-01-12T02:05:09.279Z,14.90
2024-01-12T02:07:38.816Z,14.90
2024-01-12T02:10:07.255Z,14.90
2024-01-12T02:12:38.281Z,14.90
2024-01-12T02:15:10.717Z,14.90
2024-01-12T02:17:38.197Z,14.90
2024-01-12T02:20:06.232Z,15.00
2024-01-12T02:22:33.371Z,15.00
2024-01-12T02:25:02.584Z,15.10
2024-01-12T02:27:29.787Z,15.10
2024-01-12T02:29:58.480Z,15.10
2024-01-12T02:32:25.770Z,15.10
2024-01-12T02:34:52.972Z,15.10
2024-01-12T02:37:20.137Z,15.00
2024-01-12T02:39:48.016Z,15.10
2024-01-12T02:42:15.089Z,15.10
2024-01-12T02:44:42.695Z,15.30
2024-01-12T02:47:09.992Z,16.00
2024-01-12T02:49:37.083Z,15.00
2024-01-12T02:52:04.373Z,15.10
2024-01-12T02:54:33.063Z,15.00
2024-01-12T02:57:00.290Z,14.90
2024-01-12T02:59:27.409Z,14.90
2024-01-12T03:01:54.545Z,14.90
2024-01-12T03:04:21.782Z,14.90
2024-01-12T03:06:48.953Z,14.90
2024-01-12T03:09:16.054Z,14.90
2024-01-12T03:11:43.240Z,14.90
2024-01-12T03:14:10.906Z,14.90
2024-01-12T03:16:37.969Z,14.90
2024-01-12T03:19:05.212Z,15.90
2024-01-12T03:21:32.567Z,14.90
2024-01-12T03:23:59.767Z,14.90
2024-01-12T03:26:27.232Z,14.90
2024-01-12T03:28:54.481Z,14.90
2024-01-12T03:31:22.739Z,15.00
2024-01-12T03:33:50.125Z,14.90
2024-01-12T03:36:17.723Z,14.90
2024-01-12T03:38:45.888Z,14.90
2024-01-12T03:41:13.058Z,14.90
2024-01-12T03:43:40.253Z,14.90
2024-01-12T03:46:07.454Z,14.90
2024-01-12T03:48:34.815Z,14.90
2024-01-12T03:51:02.077Z,15.00
2024-01-12T03:53:29.448Z,15.10
2024-01-12T03:55:56.573Z,15.10
2024-01-12T03:58:23.927Z,15.20
2024-01-12T04:00:51.074Z,15.20
2024-01-12T04:03:18.290Z,15.20
2024-01-12T04:05:45.552Z,15.20
2024-01-12T04:08:12.703Z,15.20
2024-01-12T04:10:39.768Z,15.20
2024-01-12T04:13:06.827Z,15.20
2024-01-12T04:15:33.923Z,15.80
2024-01-12T04:18:01.092Z,15.10
2024-01-12T04:20:28.769Z,15.10
2024-01-12T04:22:55.946Z,15.10
2024-01-12T04:25:23.031Z,15.00
2024-01-12T04:27:50.091Z,15.00
2024-01-12T04:30:17.331Z,15.30
2024-01-12T04:32:44.624Z,14.90
2024-01-12T04:35:12.283Z,15.00
2024-01-12T04:37:39.395Z,15.10
2024-01-12T04:40:08.051Z,15.10
2024-01-12T04:42:35.286Z,15.10
2024-01-12T04:45:02.598Z,15.10
2024-01-12T04:47:29.868Z,15.10
2024-01-12T04:49:57.052Z,15.10
2024-01-12T04:52:24.202Z,15.10
2024-01-12T04:54:51.268Z,15.10
2024-01-12T04:57:18.373Z,15.10
2024-01-12T04:59:45.575Z,15.10
2024-01-12T05:02:12.719Z,15.10
2024-01-12T05:04:39.826Z,15.10
2024-01-12T05:07:07.007Z,15.10
2024-01-12T05:09:34.124Z,15.40
2024-01-12T05:12:05.698Z,15.00
2024-01-12T05:14:33.561Z,15.10
2024-01-12T05:17:00.691Z,15.10
2024-01-12T05:19:29.677Z,15.00
2024-01-12T05:21:56.798Z,15.10
2024-01-12T05:24:23.933Z,15.10
2024-01-12T05:26:51.406Z,15.10
2024-01-12T05:29:18.611Z,15.00
2024-01-12T05:31:45.810Z,15.00
2024-01-12T05:34:13.012Z,14.90
2024-01-12T05:36:40.209Z,14.90
2024-01-12T05:39:07.351Z,14.90
2024-01-12T05:41:34.777Z,14.90
2024-01-12T05:44:02.203Z,15.10
2024-01-12T05:46:29.359Z,15.20
2024-01-12T05:48:56.610Z,14.90
2024-01-12T05:51:23.840Z,15.70
2024-01-12T05:53:50.986Z,14.90
2024-01-12T05:56:18.170Z,14.90
2024-01-12T05:58:45.325Z,14.90
2024-01-12T06:01:13.389Z,15.00
2024-01-12T06:03:40.719Z,15.20
2024-01-12T06:06:07.995Z,15.10
2024-01-12T06:08:35.250Z,15.40
2024-01-12T06:11:02.410Z,15.10
2024-01-12T06:13:29.541Z,15.10
2024-01-12T06:15:57.710Z,16.40
2024-01-12T06:18:25.515Z,15.10
2024-01-12T06:20:52.893Z,15.10
2024-01-12T06:23:20.153Z,15.10
2024-01-12T06:25:47.261Z,15.10
2024-01-12T06:28:14.348Z,15.60
2024-01-12T06:30:41.443Z,15.00
2024-01-12T06:33:08.715Z,15.00
2024-01-12T06:35:36.538Z,16.60
2024-01-12T06:38:03.812Z,15.00
2024-01-12T06:40:32.254Z,15.10
2024-01-12T06:42:59.441Z,15.10
2024-01-12T06:45:26.505Z,15.10
2024-01-12T06:47:53.812Z,15.10
2024-01-12T06:50:21.091Z,15.10
2024-01-12T06:52:48.331Z,15.10
2024-01-12T06:55:15.594Z,15.10
2024-01-12T06:57:45.029Z,15.10
2024-01-12T07:00:12.631Z,15.10
2024-01-12T07:02:39.940Z,15.10
2024-01-12T07:05:07.714Z,15.10
2024-01-12T07:07:34.833Z,15.10
2024-01-12T07:10:01.921Z,15.10
2024-01-12T07:12:28.983Z,15.10
2024-01-12T07:14:56.155Z,15.10
2024-01-12T07:17:23.378Z,15.10
2024-01-12T07:19:50.597Z,15.10
2024-01-12T07:22:17.780Z,14.80
2024-01-12T07:24:45.027Z,15.50
2024-01-12T07:27:12.228Z,15.10
2024-01-12T07:29:39.407Z,15.10
2024-01-12T07:32:06.743Z,15.20
2024-01-12T07:34:33.999Z,15.10
2024-01-12T07:37:01.952Z,15.10
2024-01-12T07:39:29.101Z,15.10
2024-01-12T07:41:56.656Z,15.10
2024-01-12T07:44:23.816Z,15.10
2024-01-12T07:46:50.988Z,15.10
2024-01-12T07:49:18.117Z,15.00
2024-01-12T07:51:45.950Z,15.10
2024-01-12T07:54:13.079Z,15.10
2024-01-12T07:56:40.237Z,15.10
2024-01-12T07:59:07.422Z,15.00
2024-01-12T08:01:37.119Z,15.10
2024-01-12T08:04:06.473Z,15.10
2024-01-12T08:06:33.671Z,15.10
2024-01-12T08:09:00.844Z,15.10
2024-01-12T08:11:35.749Z,15.10
2024-01-12T08:14:07.880Z,15.10
2024-01-12T08:16:35.113Z,15.10
2024-01-12T08:19:02.245Z,15.10
2024-01-12T08:21:37.661Z,15.90
2024-01-12T08:24:12.534Z,14.80
2024-01-12T08:26:39.720Z,15.20
2024-01-12T08:29:06.893Z,15.20
2024-01-12T08:31:34.025Z,15.20
2024-01-12T08:34:01.295Z,15.20
2024-01-12T08:36:28.497Z,15.20
2024-01-12T08:38:55.653Z,15.20
2024-01-12T08:41:23.086Z,15.20
2024-01-12T08:43:53.961Z,15.20
2024-01-12T08:46:21.484Z,15.20
2024-01-12T08:48:50.412Z,15.30
2024-01-12T08:51:17.868Z,15.30
2024-01-12T08:53:45.086Z,15.20
2024-01-12T08:56:12.243Z,15.50
2024-01-12T08:58:39.541Z,14.50
2024-01-12T09:01:07.483Z,13.70
2024-01-12T09:03:34.765Z,12.90
2024-01-12T09:06:02.244Z,12.20
2024-01-12T09:08:29.547Z,11.50
2024-01-12T09:10:56.696Z,11.40
2024-01-12T09:13:23.924Z,11.70
2024-01-12T09:15:50.985Z,12.10
2024-01-12T09:18:18.177Z,13.20
2024-01-12T09:20:45.311Z,12.90
2024-01-12T09:23:12.402Z,13.20
2024-01-12T09:25:39.479Z,13.50
2024-01-12T09:28:06.680Z,13.70
2024-01-12T09:30:33.821Z,13.80
2024-01-12T09:33:01.157Z,13.80
2024-01-12T09:35:28.457Z,13.90
2024-01-12T09:37:55.685Z,14.00
2024-01-12T09:40:23.272Z,14.10
2024-01-12T09:42:50.628Z,14.30
2024-01-12T09:45:23.876Z,14.40
2024-01-12T09:47:53.869Z,14.40
2024-01-12T09:50:25.355Z,14.60
2024-01-12T09:52:52.922Z,14.60
2024-01-12T09:55:20.347Z,14.70
2024-01-12T09:57:47.991Z,14.70
2024-01-12T10:00:16.022Z,14.80
2024-01-12T10:02:43.570Z,14.90
2024-01-12T10:05:10.869Z,14.90
2024-01-12T10:07:39.110Z,14.90
2024-01-12T10:10:07.475Z,14.90
2024-01-12T10:12:34.905Z,15.00
2024-01-12T10:15:03.665Z,15.00
2024-01-12T10:17:32.533Z,15.10
2024-01-12T10:20:00.207Z,15.00
2024-01-12T10:22:27.865Z,15.10
2024-01-12T10:25:02.732Z,15.10
2024-01-12T10:27:30.270Z,15.10
2024-01-12T10:29:57.967Z,15.10
2024-01-12T10:32:28.768Z,15.00
2024-01-12T10:34:56.036Z,15.20
2024-01-12T10:37:23.375Z,15.20
2024-01-12T10:39:51.479Z,15.20
2024-01-12T10:42:21.796Z,15.20
2024-01-12T10:44:52.365Z,15.20
2024-01-12T10:47:22.450Z,15.20
2024-01-12T10:49:52.016Z,15.50
2024-01-12T10:52:50.229Z,15.20
2024-01-12T10:55:22.074Z,15.20
2024-01-12T10:57:49.372Z,15.30
2024-01-12T11:00:17.970Z,15.20
2024-01-12T11:02:48.701Z,15.20
2024-01-12T11:05:17.018Z,15.20
2024-01-12T11:07:46.152Z,15.30
2024-01-12T11:10:14.616Z,15.30
2024-01-12T11:12:43.532Z,15.30
2024-01-12T11:15:10.891Z,15.30
2024-01-12T11:17:38.629Z,15.30
2024-01-12T11:20:06.102Z,14.70
2024-01-12T11:22:33.560Z,14.30
2024-01-12T11:25:00.998Z,14.10
2024-01-12T11:27:35.433Z,13.90
2024-01-12T11:30:04.905Z,13.90
2024-01-12T11:32:32.962Z,13.90
2024-01-12T11:35:21.494Z,14.00
2024-01-12T11:38:03.696Z,14.10
2024-01-12T11:40:31.443Z,14.10
2024-01-12T11:43:01.097Z,14.20
2024-01-12T11:45:33.385Z,14.30
2024-01-12T11:48:03.390Z,14.40
2024-01-12T11:50:30.748Z,14.50
2024-01-12T11:53:02.237Z,14.50
2024-01-12T11:55:29.777Z,13.90
2024-01-12T11:57:57.354Z,12.50
2024-01-12T12:00:25.071Z,12.10
2024-01-12T12:02:55.648Z,12.20
2024-01-12T12:05:25.901Z,12.50
2024-01-12T12:07:53.322Z,13.00
2024-01-12T12:10:26.775Z,13.30
2024-01-12T12:13:00.501Z,13.50
2024-01-12T12:15:27.715Z,13.70
2024-01-12T12:17:56.262Z,13.80
2024-01-12T12:20:25.582Z,14.00
2024-01-12T12:22:54.305Z,14.10
2024-01-12T12:25:21.424Z,14.00
2024-01-12T12:27:48.681Z,14.10
2024-01-12T12:30:17.840Z,14.20
2024-01-12T12:32:46.874Z,14.20
2024-01-12T12:35:19.099Z,14.20
2024-01-12T12:37:50.342Z,14.10
2024-01-12T12:40:18.049Z,14.20
2024-01-12T12:42:46.864Z,14.20
2024-01-12T12:45:14.762Z,14.20
2024-01-12T12:47:42.586Z,14.20
2024-01-12T12:50:11.018Z,14.20
2024-01-12T12:52:39.406Z,14.20
2024-01-12T12:55:08.095Z,14.20
2024-01-12T12:57:35.972Z,14.20
2024-01-12T13:00:05.604Z,14.20
2024-01-12T13:02:32.855Z,14.30
2024-01-12T13:05:00.009Z,14.30
2024-01-12T13:07:27.077Z,14.30
2024-01-12T13:09:57.074Z,14.30
2024-01-12T13:12:25.337Z,14.30
2024-01-12T13:14:52.803Z,14.40
2024-01-12T13:17:21.887Z,14.40
2024-01-12T13:19:49.325Z,14.30
2024-01-12T13:22:16.746Z,14.20
2024-01-12T13:24:44.375Z,14.30
2024-01-12T13:27:12.469Z,14.30
2024-01-12T13:29:39.680Z,14.30
2024-01-12T13:32:06.953Z,14.40
2024-01-12T13:34:34.246Z,14.30
2024-01-12T13:37:03.003Z,14.10
2024-01-12T13:39:31.356Z,14.30
2024-01-12T13:42:02.294Z,14.30
2024-01-12T13:44:29.585Z,14.30
2024-01-12T13:46:56.913Z,14.30
2024-01-12T13:49:24.739Z,14.30
2024-01-12T13:51:52.189Z,14.40
2024-01-12T13:54:19.893Z,14.30
2024-01-12T13:56:47.232Z,14.30
2024-01-12T13:59:15.443Z,14.30
2024-01-12T14:01:42.684Z,14.30
2024-01-12T14:04:12.381Z,14.30
2024-01-12T14:06:41.530Z,14.40
2024-01-12T14:09:10.483Z,14.30
2024-01-12T14:11:38.204Z,14.40
2024-01-12T14:14:05.650Z,14.30
2024-01-12T14:16:33.142Z,14.30
2024-01-12T14:19:00.546Z,14.30
2024-01-12T14:21:27.840Z,14.40
2024-01-12T14:23:55.563Z,14.30
2024-01-12T14:26:23.032Z,14.30
2024-01-12T14:28:50.216Z,14.30
2024-01-12T14:31:17.717Z,14.30
2024-01-12T14:33:47.234Z,14.30
2024-01-12T14:36:15.003Z,14.40
2024-01-12T14:38:43.580Z,14.40
2024-01-12T14:41:10.884Z,14.40
2024-01-12T14:43:38.026Z,14.30
2024-01-12T14:46:05.469Z,14.30
2024-01-12T14:48:34.900Z,14.30
2024-01-12T14:51:03.148Z,14.40
2024-01-12T14:53:31.762Z,14.40
2024-01-12T14:55:59.288Z,14.30
2024-01-12T14:58:26.465Z,14.10
2024-01-12T15:00:53.662Z,13.80
2024-01-12T15:03:20.967Z,13.80
2024-01-12T15:05:48.193Z,13.80
2024-01-12T15:08:18.635Z,13.80
2024-01-12T15:10:47.845Z,13.70
2024-01-12T15:13:15.526Z,14.00
2024-01-12T15:15:43.326Z,14.10
2024-01-12T15:18:11.639Z,14.20
2024-01-12T15:20:38.871Z,14.30
2024-01-12T15:23:07.757Z,14.30
2024-01-12T15:25:35.429Z,14.30
2024-01-12T15:28:02.683Z,14.50
2024-01-12T15:30:29.869Z,14.40
2024-01-12T15:32:57.437Z,14.50
2024-01-12T15:35:24.723Z,14.60
2024-01-12T15:37:51.864Z,14.60
2024-01-12T15:40:18.955Z,14.70
2024-01-12T15:42:49.543Z,14.80
2024-01-12T15:45:17.933Z,14.90
2024-01-12T15:47:45.523Z,15.10
2024-01-12T15:50:13.313Z,14.90
2024-01-12T15:52:40.548Z,14.90
2024-01-12T15:55:09.485Z,15.00
2024-01-12T15:57:36.865Z,15.00
2024-01-12T16:00:05.355Z,15.70
2024-01-12T16:02:33.256Z,15.00
2024-01-12T16:05:00.607Z,15.10
2024-01-12T16:07:28.979Z,15.10
2024-01-12T16:09:56.431Z,15.10
2024-01-12T16:12:23.708Z,15.10
2024-01-12T16:14:52.346Z,15.00
2024-01-12T16:17:19.460Z,15.10
2024-01-12T16:19:50.365Z,15.10
2024-01-12T16:22:17.748Z,15.10
2024-01-12T16:24:45.914Z,15.60
2024-01-12T16:27:17.021Z,15.20
2024-01-12T16:29:45.005Z,15.20
2024-01-12T16:32:12.380Z,15.30
2024-01-12T16:34:39.647Z,15.30
2024-01-12T16:37:06.829Z,15.30
2024-01-12T16:39:33.944Z,15.30
2024-01-12T16:42:01.230Z,15.30
2024-01-12T16:44:31.509Z,15.40
2024-01-12T16:46:58.795Z,15.40
2024-01-12T16:49:26.156Z,15.40
2024-01-12T16:51:53.325Z,15.30
2024-01-12T16:54:20.664Z,15.40
2024-01-12T16:56:47.749Z,15.40
2024-01-12T16:59:14.896Z,15.30
2024-01-12T17:01:42.007Z,14.80
2024-01-12T17:04:09.252Z,13.90
2024-01-12T17:06:40.963Z,13.80
2024-01-12T17:09:12.139Z,13.90
2024-01-12T17:11:46.488Z,13.90
2024-01-12T17:14:13.874Z,14.00
2024-01-12T17:16:44.607Z,14.10
2024-01-12T17:19:12.067Z,14.20
2024-01-12T17:21:39.410Z,14.30
2024-01-12T17:24:06.930Z,14.40
2024-01-12T17:26:34.885Z,14.50
2024-01-12T17:29:02.251Z,14.60
2024-01-12T17:31:29.941Z,14.70
2024-01-12T17:33:57.394Z,14.70
2024-01-12T17:36:24.586Z,14.80
2024-01-12T17:38:51.702Z,14.80
2024-01-12T17:41:23.465Z,15.40
2024-01-12T17:43:50.812Z,14.90
2024-01-12T17:46:17.945Z,15.40
2024-01-12T17:48:45.393Z,15.00
2024-01-12T17:51:16.328Z,15.00
2024-01-12T17:53:44.284Z,15.00
2024-01-12T17:56:12.252Z,15.10
2024-01-12T17:58:39.357Z,15.10
2024-01-12T18:01:06.467Z,15.10
2024-01-12T18:03:33.704Z,15.10
2024-01-12T18:06:04.270Z,14.90
2024-01-12T18:08:31.606Z,15.10
2024-01-12T18:10:59.077Z,15.20
2024-01-12T18:13:26.462Z,15.20
2024-01-12T18:15:53.685Z,15.10
2024-01-12T18:18:21.037Z,15.10
2024-01-12T18:20:48.299Z,15.10
2024-01-12T18:23:15.432Z,15.20
2024-01-12T18:25:42.593Z,15.20
2024-01-12T18:28:09.684Z,15.20
2024-01-12T18:30:36.925Z,15.20
2024-01-12T18:33:04.605Z,15.20
2024-01-12T18:35:31.850Z,15.20
2024-01-12T18:37:58.921Z,15.20
2024-01-12T18:40:26.035Z,15.20
2024-01-12T18:42:53.096Z,15.20
2024-01-12T18:45:20.251Z,15.20
2024-01-12T18:47:47.519Z,15.30
2024-01-12T18:50:14.728Z,15.30
2024-01-12T18:52:44.856Z,15.30
2024-01-12T18:55:11.985Z,15.10
2024-01-12T18:57:39.151Z,15.30
2024-01-12T19:00:07.110Z,16.10
2024-01-12T19:02:34.231Z,15.40
2024-01-12T19:05:01.505Z,15.40
2024-01-12T19:07:29.191Z,15.40
2024-01-12T19:09:56.460Z,15.40
2024-01-12T19:12:23.627Z,15.30
2024-01-12T19:14:50.906Z,15.30
2024-01-12T19:17:18.002Z,15.30
2024-01-12T19:19:45.412Z,15.30
2024-01-12T19:22:12.523Z,15.30
2024-01-12T19:24:44.509Z,15.20
2024-01-12T19:27:12.101Z,15.20
2024-01-12T19:29:39.337Z,15.20
2024-01-12T19:32:06.902Z,15.20
2024-01-12T19:34:34.001Z,15.30
2024-01-12T19:37:01.138Z,15.60
2024-01-12T19:39:29.465Z,15.40
2024-01-12T19:41:58.953Z,15.40
2024-01-12T19:44:26.186Z,15.40
2024-01-12T19:46:53.279Z,15.40
2024-01-12T19:49:20.545Z,15.40
2024-01-12T19:51:47.698Z,15.40
2024-01-12T19:54:14.800Z,15.40
2024-01-12T19:56:41.896Z,15.40
2024-01-12T19:59:10.365Z,15.40
2024-01-12T20:01:37.499Z,15.40
2024-01-12T20:04:04.908Z,15.40
2024-01-12T20:06:32.428Z,15.40
2024-01-12T20:08:59.693Z,15.50
2024-01-12T20:11:27.025Z,15.50
2024-01-12T20:13:54.186Z,15.30
2024-01-12T20:16:22.674Z,15.40
2024-01-12T20:18:50.716Z,15.40
2024-01-12T20:21:18.342Z,15.40
2024-01-12T20:23:45.563Z,15.40
2024-01-12T20:26:12.786Z,15.20
2024-01-12T20:28:40.229Z,15.60
2024-01-12T20:31:07.469Z,15.40
2024-01-12T20:33:37.508Z,15.40
2024-01-12T20:36:06.676Z,15.40
2024-01-12T20:38:33.976Z,15.40
2024-01-12T20:41:04.083Z,15.40
2024-01-12T20:43:31.406Z,15.20
2024-01-12T20:45:58.644Z,15.40
2024-01-12T20:48:25.978Z,15.40
2024-01-12T20:50:54.714Z,15.60
2024-01-12T20:53:22.294Z,15.40
2024-01-12T20:55:49.379Z,15.40
2024-01-12T20:58:16.548Z,15.40
2024-01-12T21:00:43.717Z,15.40
2024-01-12T21:03:10.918Z,15.40
2024-01-12T21:05:38.185Z,15.40
2024-01-12T21:08:05.743Z,15.50
2024-01-12T21:10:32.908Z,15.50
2024-01-12T21:13:00.058Z,15.50
2024-01-12T21:15:27.162Z,15.50
2024-01-12T21:17:54.463Z,15.50
2024-01-12T21:20:21.610Z,15.50
2024-01-12T21:22:49.074Z,15.50
2024-01-12T21:25:16.240Z,15.50
2024-01-12T21:27:43.306Z,15.50
2024-01-12T21:30:11.168Z,15.60
2024-01-12T21:32:38.465Z,15.50
2024-01-12T21:35:06.210Z,15.50
2024-01-12T21:37:33.994Z,15.50
2024-01-12T21:40:01.190Z,15.50
2024-01-12T21:42:28.241Z,15.60
2024-01-12T21:44:57.619Z,15.50
2024-01-12T21:47:25.629Z,15.50
2024-01-12T21:49:52.860Z,15.50
2024-01-12T21:52:20.009Z,15.50
2024-01-12T21:54:47.116Z,15.50
2024-01-12T21:57:14.302Z,15.50
2024-01-12T21:59:41.545Z,15.50
2024-01-12T22:02:08.687Z,15.40
2024-01-12T22:04:35.758Z,15.40
2024-01-12T22:07:02.883Z,15.40
2024-01-12T22:09:31.206Z,15.50
2024-01-12T22:11:58.367Z,15.50
2024-01-12T22:14:25.511Z,15.40
2024-01-12T22:16:52.608Z,15.50
2024-01-12T22:19:19.888Z,15.50
2024-01-12T22:21:47.521Z,15.40
2024-01-12T22:24:16.977Z,14.40
2024-01-12T22:26:44.522Z,13.30
2024-01-12T22:29:11.674Z,12.60
2024-01-12T22:31:38.721Z,12.90
2024-01-12T22:34:06.007Z,13.10
2024-01-12T22:36:34.498Z,13.30
2024-01-12T22:39:01.786Z,13.60
2024-01-12T22:41:29.013Z,13.80
2024-01-12T22:43:56.119Z,13.00
2024-01-12T22:46:23.293Z,12.20
2024-01-12T22:48:50.534Z,12.50
2024-01-12T22:51:17.780Z,12.80
2024-01-12T22:53:44.939Z,13.00
2024-01-12T22:56:13.309Z,13.30
2024-01-12T22:58:41.129Z,13.50
2024-01-12T23:01:08.287Z,13.40
2024-01-12T23:03:35.639Z,13.20
2024-01-12T23:06:03.259Z,13.10
2024-01-12T23:08:30.448Z,12.20
2024-01-12T23:10:57.577Z,13.30
2024-01-12T23:13:24.685Z,13.50
2024-01-12T23:15:51.830Z,14.50
2024-01-12T23:18:19.134Z,13.70
2024-01-12T23:20:46.430Z,13.60
2024-01-12T23:23:13.815Z,13.60
2024-01-12T23:25:40.873Z,13.60
2024-01-12T23:28:07.983Z,14.10
2024-01-12T23:30:35.339Z,13.80
2024-01-12T23:33:02.729Z,13.90
2024-01-12T23:35:30.044Z,14.00
2024-01-12T23:37:57.155Z,14.10
2024-01-12T23:40:24.204Z,14.20
2024-01-12T23:42:51.289Z,14.40
2024-01-12T23:45:18.685Z,14.40
2024-01-12T23:47:45.949Z,14.50
2024-01-12T23:50:13.229Z,14.50
2024-01-12T23:52:40.444Z,14.60
2024-01-12T23:55:10.920Z,14.70
2024-01-12T23:57:38.031Z,14.70
